Time;durP1;ratioP1;P1;durP2;ratioP2;P2;SDS_P1;SDS_P2;PMS_P1;PMS_P2;Temp;Humidity;BMP_temperature;BMP_pressure;BME280_temperature;BME280_humidity;BME280_pressure;Samples;Min_cycle;Max_cycle;Signal;HPM_P1;HPM_P2
2021/12/27 00:01:17;;;;;;;4.00;3.00;;;2.10;99.90;;;2.88;100.00;96967.63;5042105;28;20551;-77
2021/12/27 00:03:49;;;;;;;3.20;2.80;;;2.10;99.90;;;2.87;100.00;96966.00;5038988;28;20498;-77
2021/12/27 00:06:19;;;;;;;4.20;3.00;;;2.00;99.90;;;2.91;100.00;96972.44;5040214;28;20481;-77
2021/12/27 00:08:49;;;;;;;6.30;4.00;;;2.10;99.90;;;2.84;100.00;96966.34;5043642;28;20929;-77
2021/12/27 00:11:19;;;;;;;6.23;3.30;;;2.00;99.90;;;2.85;100.00;96967.94;5044089;28;20957;-77
2021/12/27 00:13:49;;;;;;;4.60;3.60;;;2.00;99.90;;;2.88;100.00;96958.06;5047831;28;20491;-77
2021/12/27 00:16:20;;;;;;;8.03;3.97;;;2.10;99.90;;;2.92;100.00;96953.38;5045842;28;20475;-77
2021/12/27 00:18:49;;;;;;;5.47;3.03;;;2.10;99.90;;;2.94;100.00;96956.63;5045898;28;20457;-77
2021/12/27 00:21:21;;;;;;;7.13;3.67;;;2.20;99.90;;;2.90;100.00;96957.91;5047644;28;20489;-77
2021/12/27 00:23:50;;;;;;;5.37;3.13;;;2.20;99.90;;;2.88;100.00;96957.28;5046698;28;20950;-77
2021/12/27 00:26:20;;;;;;;6.70;4.37;;;2.10;99.90;;;2.92;100.00;96958.53;5039542;28;20506;-77
2021/12/27 00:28:51;;;;;;;8.83;3.90;;;2.20;99.90;;;2.93;100.00;96955.00;5045330;28;20472;-77
2021/12/27 00:31:20;;;;;;;5.93;3.80;;;2.20;99.90;;;2.94;100.00;96951.47;5041608;28;20983;-78
2021/12/27 00:33:51;;;;;;;7.23;4.20;;;2.20;99.90;;;2.97;100.00;96956.28;5039477;28;20469;-77
2021/12/27 00:36:21;;;;;;;6.30;3.87;;;2.20;99.90;;;3.00;100.00;96955.94;5039559;28;20987;-77
2021/12/27 00:38:49;;;;;;;6.70;3.50;;;2.30;99.90;;;3.01;100.00;96953.22;5044631;28;20547;-77
2021/12/27 00:41:19;;;;;;;6.90;3.60;;;2.30;99.90;;;2.99;100.00;96949.97;5043412;28;20480;-77
2021/12/27 00:43:49;;;;;;;7.77;3.50;;;2.20;99.90;;;3.02;100.00;96948.84;5042057;28;20507;-77
2021/12/27 00:46:19;;;;;;;6.70;3.37;;;2.20;99.90;;;3.02;100.00;96948.84;5043556;28;20497;-77
2021/12/27 00:48:50;;;;;;;6.77;3.80;;;2.20;99.90;;;3.05;100.00;96940.78;5040946;28;21319;-77
2021/12/27 00:51:19;;;;;;;6.17;2.83;;;2.20;99.90;;;3.03;100.00;96946.09;5036063;28;20529;-77
2021/12/27 00:53:49;;;;;;;5.70;3.50;;;2.30;99.90;;;2.98;100.00;96948.38;5032631;28;20463;-77
2021/12/27 00:56:19;;;;;;;6.20;3.70;;;2.20;99.90;;;2.96;100.00;96944.34;5041176;28;20486;-77
2021/12/27 00:58:47;;;;;;;6.67;3.47;;;2.30;99.90;;;2.94;100.00;96943.72;5037868;28;20486;-77
2021/12/27 01:01:18;;;;;;;7.27;3.70;;;2.20;99.90;;;2.93;100.00;96942.09;5045570;28;20879;-77
2021/12/27 01:03:48;;;;;;;5.97;4.00;;;2.20;99.90;;;2.93;100.00;96937.75;5040500;28;20479;-77
2021/12/27 01:06:17;;;;;;;5.20;3.37;;;2.20;99.90;;;2.96;100.00;96936.59;5035059;28;20591;-77
2021/12/27 01:08:47;;;;;;;9.40;3.83;;;2.20;99.90;;;2.99;100.00;96928.50;5034817;28;20880;-77
2021/12/27 01:11:25;;;;;;;8.23;3.60;;;2.20;99.90;;;2.96;100.00;96940.00;5050313;28;21063;-77
2021/12/27 01:14:11;;;;;;;6.10;3.70;;;2.30;99.90;;;2.94;100.00;96931.63;5041605;28;20469;-77
2021/12/27 01:17:00;;;;;;;4.80;3.40;;;2.20;99.90;;;2.98;100.00;96937.25;5039930;28;20518;-77
2021/12/27 01:19:29;;;;;;;6.27;3.40;;;2.20;99.90;;;2.97;100.00;96930.47;5042983;28;20461;-77
2021/12/27 01:22:00;;;;;;;6.77;3.50;;;2.10;99.90;;;2.99;100.00;96933.69;5042238;28;21018;-77
2021/12/27 01:24:30;;;;;;;6.93;4.50;;;2.20;99.90;;;2.99;100.00;96931.91;5036500;28;20552;-77
2021/12/27 01:27:02;;;;;;;7.70;4.27;;;2.20;99.90;;;3.01;100.00;96929.16;5043709;28;20533;-77
2021/12/27 01:29:33;;;;;;;6.27;3.70;;;2.20;99.90;;;3.04;100.00;96929.63;5045988;28;20485;-77
2021/12/27 01:32:06;;;;;;;5.30;3.70;;;2.30;99.90;;;3.07;100.00;96936.25;5045031;28;20504;-77
2021/12/27 01:34:35;;;;;;;5.20;4.00;;;2.30;99.90;;;3.06;100.00;96939.78;5045406;28;20461;-77
2021/12/27 01:37:06;;;;;;;5.70;3.60;;;2.30;99.90;;;3.00;100.00;96936.09;5043268;28;20485;-77
2021/12/27 01:39:36;;;;;;;5.10;3.47;;;2.30;99.90;;;2.97;100.00;96933.88;5045219;28;20532;-77
2021/12/27 01:42:07;;;;;;;5.87;3.80;;;2.30;99.90;;;3.00;100.00;96922.38;5039308;28;20466;-77
2021/12/27 01:44:38;;;;;;;5.10;3.90;;;2.30;99.90;;;3.02;100.00;96928.97;5044958;28;20541;-77
2021/12/27 01:47:09;;;;;;;5.77;3.80;;;2.30;99.90;;;3.08;100.00;96926.72;5044848;28;20552;-77
2021/12/27 01:49:38;;;;;;;5.00;3.57;;;2.40;99.90;;;3.10;100.00;96923.00;5044365;28;20502;-77
2021/12/27 01:52:08;;;;;;;4.77;3.27;;;2.40;99.90;;;3.11;100.00;96927.19;5037399;28;20870;-77
2021/12/27 01:54:38;;;;;;;6.43;3.47;;;2.40;99.90;;;3.14;100.00;96926.84;5027451;28;20478;-77
2021/12/27 01:57:08;;;;;;;5.23;3.30;;;2.40;99.90;;;3.16;100.00;96924.88;5042461;28;20461;-77
2021/12/27 01:59:39;;;;;;;8.03;4.07;;;2.40;99.90;;;3.17;100.00;96918.75;5040222;28;21320;-77
2021/12/27 02:02:12;;;;;;;7.13;4.50;;;2.50;99.90;;;3.17;100.00;96913.59;5031154;28;20502;-77
2021/12/27 02:04:42;;;;;;;6.20;4.20;;;2.50;99.90;;;3.19;100.00;96910.84;5043141;28;21020;-77
2021/12/27 02:07:12;;;;;;;9.73;4.40;;;2.50;99.90;;;3.18;100.00;96917.00;5037195;28;20496;-77
2021/12/27 02:09:53;;;;;;;10.60;4.70;;;2.60;99.90;;;3.21;100.00;96911.47;5034117;28;20464;-77
2021/12/27 02:12:24;;;;;;;6.77;3.80;;;2.60;99.90;;;3.20;100.00;96913.25;5033489;28;20514;-77
2021/12/27 02:14:54;;;;;;;5.37;3.50;;;2.50;99.90;;;3.21;100.00;96917.47;5046732;28;20708;-77
2021/12/27 02:17:27;;;;;;;7.10;3.67;;;2.50;99.90;;;3.21;100.00;96906.31;5047095;28;20490;-77
2021/12/27 02:19:58;;;;;;;10.07;4.63;;;2.50;99.90;;;3.22;100.00;96919.06;5045832;28;20546;-77
2021/12/27 02:22:34;;;;;;;5.60;3.57;;;2.40;99.90;;;3.22;100.00;96918.25;5050970;28;20437;-77
2021/12/27 02:25:08;;;;;;;8.70;4.23;;;2.40;99.90;;;3.21;100.00;96917.47;5051366;28;20457;-77
2021/12/27 02:27:38;;;;;;;5.30;3.93;;;2.40;99.90;;;3.22;100.00;96910.53;5058693;28;20466;-77
2021/12/27 02:30:12;;;;;;;7.03;4.40;;;2.40;99.90;;;3.22;100.00;96907.94;5047406;28;20519;-77
2021/12/27 02:32:52;;;;;;;7.10;3.97;;;2.40;99.90;;;3.23;100.00;96905.16;5047796;28;20452;-77
2021/12/27 02:35:27;;;;;;;9.73;4.67;;;2.50;99.90;;;3.22;100.00;96907.94;5038632;28;20552;-77
2021/12/27 02:37:59;;;;;;;5.30;3.70;;;2.40;99.90;;;3.20;100.00;96904.69;5048623;28;21831;-77
2021/12/27 02:40:32;;;;;;;6.47;4.03;;;2.40;99.90;;;3.19;100.00;96903.91;5048971;28;20463;-77
2021/12/27 02:43:05;;;;;;;5.30;3.60;;;2.40;99.90;;;3.13;100.00;96904.56;5046125;28;20470;-77
2021/12/27 02:45:39;;;;;;;5.23;3.37;;;2.40;99.90;;;3.14;100.00;96901.03;5041937;28;20555;-77
2021/12/27 02:48:11;;;;;;;6.83;3.97;;;2.40;99.90;;;3.13;100.00;96904.56;5042629;28;20508;-77
2021/12/27 02:50:45;;;;;;;7.87;3.80;;;2.30;99.90;;;3.14;100.00;96910.53;5046321;28;20465;-77
2021/12/27 02:53:17;;;;;;;4.50;3.43;;;2.30;99.90;;;3.14;100.00;96902.78;5038612;28;20495;-77
2021/12/27 02:55:49;;;;;;;8.03;4.03;;;2.40;99.90;;;3.14;100.00;96901.03;5049168;28;20472;-77
2021/12/27 02:58:18;;;;;;;5.80;3.90;;;2.30;99.90;;;3.11;100.00;96901.38;5039520;28;20449;-77
2021/12/27 03:00:53;;;;;;;7.10;3.50;;;2.30;99.90;;;3.12;100.00;96904.75;5045330;28;20457;-77
2021/12/27 03:03:23;;;;;;;8.70;3.70;;;2.30;99.90;;;3.12;100.00;96900.41;5044342;28;20469;-77
2021/12/27 03:05:54;;;;;;;6.70;3.50;;;2.30;99.90;;;3.11;100.00;96898.78;5049752;28;20491;-77
2021/12/27 03:08:26;;;;;;;6.17;3.63;;;2.30;99.90;;;3.13;100.00;96898.59;5049486;28;20495;-77
2021/12/27 03:10:57;;;;;;;6.73;3.63;;;2.40;99.90;;;3.16;100.00;96890.53;5047006;28;21027;-77
2021/12/27 03:13:31;;;;;;;5.57;3.50;;;2.30;99.90;;;3.12;100.00;96897.81;5048999;28;20459;-77
2021/12/27 03:16:07;;;;;;;10.47;3.50;;;2.30;99.90;;;3.11;100.00;96890.22;5036962;28;20463;-77
2021/12/27 03:18:40;;;;;;;6.10;3.83;;;2.20;99.90;;;3.14;100.00;96880.38;5040952;28;20457;-77
2021/12/27 03:21:12;;;;;;;11.33;3.70;;;2.30;99.90;;;3.19;100.00;96878.09;5039516;28;20559;-77
2021/12/27 03:23:44;;;;;;;8.13;3.40;;;2.40;99.90;;;3.22;100.00;96882.91;5047667;28;20469;-77
2021/12/27 03:26:15;;;;;;;5.50;3.23;;;2.40;99.90;;;3.22;100.00;96879.53;5047284;28;20503;-77
2021/12/27 03:28:46;;;;;;;5.30;2.93;;;2.40;99.90;;;3.23;100.00;96881.91;5060898;28;20461;-77
2021/12/27 03:31:17;;;;;;;6.53;3.47;;;2.40;99.90;;;3.21;100.00;96873.53;5047717;28;20461;-77
2021/12/27 03:33:47;;;;;;;5.10;3.57;;;2.40;99.90;;;3.21;100.00;96870.97;5049039;28;20459;-77
2021/12/27 03:36:23;;;;;;;4.80;3.00;;;2.40;99.90;;;3.23;100.00;96868.22;5044094;28;20589;-77
2021/12/27 03:38:53;;;;;;;4.80;2.90;;;2.50;99.90;;;3.24;100.00;96868.03;5047256;28;20535;-77
2021/12/27 03:41:26;;;;;;;3.50;2.60;;;2.50;99.90;;;3.25;100.00;96869.66;5049516;28;20467;-77
2021/12/27 03:43:56;;;;;;;5.07;3.37;;;2.50;99.90;;;3.25;100.00;96868.84;5042369;28;20862;-77
2021/12/27 03:46:24;;;;;;;5.47;3.30;;;2.50;99.90;;;3.26;100.00;96866.09;5046436;28;20500;-77
2021/12/27 03:48:55;;;;;;;10.10;3.67;;;2.50;99.90;;;3.26;100.00;96867.88;5049882;28;20465;-77
2021/12/27 03:51:26;;;;;;;7.70;4.10;;;2.50;99.90;;;3.22;100.00;96862.25;5043849;28;21031;-77
2021/12/27 03:53:57;;;;;;;2.90;2.63;;;2.40;99.90;;;3.17;100.00;96861.94;5050171;28;20453;-77
2021/12/27 03:56:27;;;;;;;4.10;3.27;;;2.40;99.90;;;3.13;100.00;96858.09;5036773;28;20490;-77
2021/12/27 03:59:08;;;;;;;5.50;3.37;;;2.30;99.90;;;3.14;100.00;96854.53;5040131;28;20507;-77
2021/12/27 04:01:38;;;;;;;5.77;2.97;;;2.30;99.90;;;3.17;100.00;96846.44;5042017;28;21026;-77
2021/12/27 04:04:08;;;;;;;4.90;3.20;;;2.40;99.90;;;3.19;100.00;96851.47;5029563;28;20494;-77
2021/12/27 04:06:39;;;;;;;3.80;2.80;;;2.40;99.90;;;3.18;100.00;96845.47;5044365;28;20489;-77
2021/12/27 04:09:09;;;;;;;5.00;3.10;;;2.40;99.90;;;3.19;100.00;96854.84;5047718;28;20830;-77
2021/12/27 04:11:39;;;;;;;4.17;2.83;;;2.40;99.90;;;3.21;100.00;96858.06;5045117;28;20503;-77
2021/12/27 04:14:08;;;;;;;4.70;3.10;;;2.50;99.90;;;3.24;100.00;96855.13;5045096;28;20984;-77
2021/12/27 04:16:38;;;;;;;6.20;3.07;;;2.50;99.90;;;3.20;100.00;96856.44;5045322;28;20496;-78
2021/12/27 04:19:09;;;;;;;4.83;2.90;;;2.40;99.90;;;3.16;100.00;96852.56;5047397;28;20465;-77
2021/12/27 04:21:40;;;;;;;5.77;3.27;;;2.40;99.90;;;3.18;100.00;96847.25;5047299;28;20511;-77
2021/12/27 04:24:09;;;;;;;4.53;2.33;;;2.40;99.90;;;3.19;100.00;96841.94;5044601;28;20465;-77
2021/12/27 04:26:38;;;;;;;3.37;2.17;;;2.40;99.90;;;3.19;100.00;96846.28;5048294;28;20547;-77
2021/12/27 04:29:08;;;;;;;3.03;2.23;;;2.40;99.90;;;3.21;100.00;96844.34;5048040;28;20457;-77
2021/12/27 04:31:38;;;;;;;5.07;2.73;;;2.40;99.90;;;3.22;100.00;96840.78;5046721;28;20516;-77
2021/12/27 04:34:08;;;;;;;3.23;2.30;;;2.40;99.90;;;3.18;100.00;96845.47;5044580;28;20845;-77
2021/12/27 04:36:39;;;;;;;4.27;2.87;;;2.40;99.90;;;3.20;100.00;96842.72;5046635;28;20475;-78
2021/12/27 04:39:09;;;;;;;3.80;2.87;;;2.40;99.90;;;3.18;100.00;96840.31;5035340;28;20474;-77
2021/12/27 04:41:38;;;;;;;5.57;2.60;;;2.40;99.90;;;3.18;100.00;96844.69;5046530;28;20445;-78
2021/12/27 04:44:08;;;;;;;2.93;2.20;;;2.40;99.90;;;3.14;100.00;96849.38;5042163;28;21574;-77
2021/12/27 04:46:38;;;;;;;3.37;2.50;;;2.30;99.90;;;3.12;100.00;96841.00;5043716;28;20536;-78
2021/12/27 04:49:08;;;;;;;3.50;2.47;;;2.30;99.90;;;3.16;100.00;96838.88;5035550;28;20514;-77
2021/12/27 04:51:37;;;;;;;4.00;2.60;;;2.40;99.90;;;3.17;100.00;96843.06;5035105;28;20540;-77
2021/12/27 04:54:13;;;;;;;5.97;2.67;;;2.40;99.90;;;3.19;100.00;96841.94;5039389;28;20461;-77
2021/12/27 04:56:43;;;;;;;4.23;2.80;;;2.40;99.90;;;3.19;100.00;96839.34;5033906;28;20462;-77
2021/12/27 04:59:14;;;;;;;4.97;2.67;;;2.50;99.90;;;3.23;100.00;96834.66;5040752;28;20449;-77
2021/12/27 05:01:45;;;;;;;5.27;3.20;;;2.50;99.90;;;3.25;100.00;96836.09;5042054;28;20461;-77
2021/12/27 05:04:15;;;;;;;8.53;3.50;;;2.50;99.90;;;3.26;100.00;96832.53;5045233;28;20922;-77
2021/12/27 05:06:46;;;;;;;5.00;3.30;;;2.50;99.90;;;3.26;100.00;96834.31;5034374;28;20862;-77
2021/12/27 05:09:17;;;;;;;3.73;3.07;;;2.50;99.90;;;3.23;100.00;96835.44;5037428;28;20473;-77
2021/12/27 05:11:47;;;;;;;6.23;3.20;;;2.50;99.90;;;3.26;100.00;96842.88;5041507;28;20462;-77
2021/12/27 05:14:17;;;;;;;4.20;2.87;;;2.50;99.90;;;3.31;100.00;96837.97;5039846;28;20818;-77
2021/12/27 05:16:49;;;;;;;5.23;3.07;;;2.50;99.90;;;3.31;100.00;96840.56;5041104;28;20474;-77
2021/12/27 05:19:18;;;;;;;5.70;3.50;;;2.60;99.90;;;3.30;100.00;96827.78;5041528;28;20843;-77
2021/12/27 05:21:49;;;;;;;10.70;3.30;;;2.60;99.90;;;3.24;100.00;96824.13;5039299;28;20457;-77
2021/12/27 05:24:22;;;;;;;6.37;3.30;;;2.50;99.90;;;3.16;100.00;96821.59;5043265;28;20985;-77
2021/12/27 05:26:52;;;;;;;3.63;2.53;;;2.30;99.90;;;3.20;100.00;96824.63;5042498;28;20498;-77
2021/12/27 05:29:22;;;;;;;6.07;2.83;;;2.40;99.90;;;3.23;100.00;96822.50;5042074;28;20459;-77
2021/12/27 05:31:52;;;;;;;7.97;3.93;;;2.40;99.90;;;3.25;100.00;96814.59;5039566;28;20466;-77
2021/12/27 05:34:26;;;;;;;6.80;3.30;;;2.50;99.90;;;3.27;100.00;96810.88;5038474;28;20794;-77
2021/12/27 05:36:56;;;;;;;6.80;3.70;;;2.60;99.90;;;3.29;100.00;96800.38;5041779;28;20464;-77
2021/12/27 05:39:27;;;;;;;9.80;4.30;;;2.60;99.90;;;3.30;100.00;96807.94;5044821;28;20465;-77
2021/12/27 05:41:58;;;;;;;9.17;3.80;;;2.60;99.90;;;3.32;100.00;96795.69;5034054;28;20466;-77
2021/12/27 05:44:27;;;;;;;6.17;3.60;;;2.60;99.90;;;3.32;100.00;96793.09;5041574;28;20451;-77
2021/12/27 05:46:57;;;;;;;7.90;4.50;;;2.60;99.90;;;3.34;100.00;96796.28;5044473;28;20457;-77
2021/12/27 05:49:27;;;;;;;5.80;4.00;;;2.60;99.90;;;3.35;100.00;96794.50;5042930;28;20815;-77
2021/12/27 05:51:58;;;;;;;7.17;4.00;;;2.60;99.90;;;3.34;100.00;96788.53;5046445;28;20893;-77
2021/12/27 05:54:29;;;;;;;9.60;3.50;;;2.70;99.90;;;3.35;100.00;96785.00;5046181;28;20474;-77
2021/12/27 05:56:59;;;;;;;6.80;3.63;;;2.80;99.90;;;3.36;100.00;96786.59;5046518;28;21033;-77
2021/12/27 05:59:28;;;;;;;5.57;3.60;;;2.70;99.90;;;3.36;100.00;96786.59;5047308;28;20875;-77
2021/12/27 06:01:58;;;;;;;7.73;4.10;;;2.70;99.90;;;3.38;100.00;96794.16;5045347;28;20458;-77
2021/12/27 06:04:28;;;;;;;6.57;3.80;;;2.60;99.90;;;3.37;100.00;96795.94;5045577;28;20549;-77
2021/12/27 06:06:58;;;;;;;8.03;4.30;;;2.60;99.90;;;3.37;100.00;96788.19;5047624;28;20460;-78
2021/12/27 06:09:29;;;;;;;8.10;4.07;;;2.60;99.90;;;3.35;100.00;96786.75;5048387;28;21003;-77
2021/12/27 06:11:58;;;;;;;10.70;4.20;;;2.60;99.90;;;3.37;100.00;96787.38;5044621;28;20867;-77
2021/12/27 06:14:29;;;;;;;6.87;4.00;;;2.60;99.90;;;3.35;100.00;96784.19;5046629;28;20456;-77
2021/12/27 06:16:59;;;;;;;8.50;4.30;;;2.60;99.90;;;3.33;100.00;96786.94;5041029;28;20829;-77
2021/12/27 06:19:29;;;;;;;8.83;4.07;;;2.50;99.90;;;3.33;100.00;96781.75;5039980;28;20459;-77
2021/12/27 06:22:01;;;;;;;4.50;3.43;;;2.50;99.90;;;3.32;100.00;96780.19;5036762;28;20783;-77
2021/12/27 06:24:32;;;;;;;8.47;4.17;;;2.50;99.90;;;3.31;100.00;96777.75;5035200;28;20461;-77
2021/12/27 06:27:02;;;;;;;5.63;3.50;;;2.50;99.90;;;3.30;100.00;96779.53;5040620;28;20472;-77
2021/12/27 06:29:32;;;;;;;6.80;3.93;;;2.40;99.90;;;3.30;100.00;96776.13;5043598;28;20496;-77
2021/12/27 06:32:02;;;;;;;6.90;3.90;;;2.50;99.90;;;3.28;100.00;96773.75;5044711;28;20514;-77
2021/12/27 06:34:31;;;;;;;6.60;3.60;;;2.60;99.90;;;3.28;100.00;96776.31;5039465;28;20504;-77
2021/12/27 06:37:01;;;;;;;7.37;3.00;;;2.50;99.90;;;3.30;100.00;96776.94;5044770;28;20466;-77
2021/12/27 06:39:32;;;;;;;8.97;4.97;;;2.50;99.90;;;3.32;100.00;96769.84;5039341;28;20521;-77
2021/12/27 06:42:01;;;;;;;4.60;2.73;;;2.50;99.90;;;3.30;100.00;96765.81;5042217;28;20460;-77
2021/12/27 06:44:32;;;;;;;6.73;2.83;;;2.50;99.90;;;3.27;100.00;96772.13;5037815;28;20481;-77
2021/12/27 06:47:03;;;;;;;7.40;3.30;;;2.50;99.90;;;3.26;100.00;96770.53;5046884;28;20856;-77
2021/12/27 06:49:32;;;;;;;9.53;3.30;;;2.50;99.90;;;3.31;100.00;96768.22;5049583;28;20496;-77
2021/12/27 06:52:05;;;;;;;9.00;3.17;;;2.60;99.90;;;3.34;100.00;96773.03;5044831;28;20466;-77
2021/12/27 06:54:37;;;;;;;4.87;3.00;;;2.70;99.90;;;3.38;100.00;96768.34;5034018;28;20500;-77
2021/12/27 06:57:07;;;;;;;4.77;3.00;;;2.70;99.90;;;3.36;100.00;96768.53;5041643;28;21042;-77
2021/12/27 06:59:36;;;;;;;5.43;3.67;;;2.70;99.90;;;3.37;100.00;96771.88;5038062;28;20470;-77
2021/12/27 07:02:07;;;;;;;5.20;3.23;;;2.60;99.90;;;3.35;100.00;96764.31;5038267;28;20497;-77
2021/12/27 07:04:36;;;;;;;3.97;3.57;;;2.60;99.90;;;3.36;100.00;96763.34;5041198;28;20969;-77
2021/12/27 07:07:06;;;;;;;3.90;2.80;;;2.60;99.90;;;3.35;100.00;96772.06;5041412;28;20466;-77
2021/12/27 07:09:37;;;;;;;6.20;2.67;;;2.60;99.90;;;3.37;100.00;96758.97;5046156;28;20501;-77
2021/12/27 07:12:10;;;;;;;3.97;2.93;;;2.60;99.90;;;3.36;100.00;96771.09;5041863;28;20482;-77
2021/12/27 07:14:41;;;;;;;5.10;2.67;;;2.60;99.90;;;3.38;100.00;96768.34;5041661;28;20458;-77
2021/12/27 07:17:11;;;;;;;2.87;2.27;;;2.60;99.90;;;3.38;100.00;96776.91;5044878;28;20531;-77
2021/12/27 07:19:40;;;;;;;4.10;2.60;;;2.60;99.90;;;3.40;100.00;96779.31;5042615;28;21028;-77
2021/12/27 07:22:09;;;;;;;5.63;2.80;;;2.60;99.90;;;3.40;100.00;96767.19;5044860;28;20470;-77
2021/12/27 07:24:42;;;;;;;4.30;2.57;;;2.70;99.90;;;3.42;100.00;96773.00;5044704;28;20527;-77
2021/12/27 07:27:12;;;;;;;4.67;2.50;;;2.70;99.90;;;3.44;100.00;96771.03;5042788;28;20595;-77
2021/12/27 07:29:42;;;;;;;3.57;2.30;;;2.80;99.90;;;3.46;100.00;96765.69;5038457;28;20555;-77
2021/12/27 07:32:11;;;;;;;3.20;1.97;;;2.80;99.90;;;3.46;100.00;96760.53;5044365;28;21041;-77
2021/12/27 07:34:40;;;;;;;2.73;1.80;;;2.80;99.90;;;3.45;100.00;96748.56;5039752;28;20445;-77
2021/12/27 07:37:10;;;;;;;4.17;2.37;;;2.70;99.90;;;3.45;100.00;96751.16;5045100;28;20464;-77
2021/12/27 07:39:42;;;;;;;3.60;2.40;;;2.70;99.90;;;3.44;100.00;96757.31;5042394;28;20538;-77
2021/12/27 07:42:12;;;;;;;3.13;1.70;;;2.70;99.90;;;3.44;100.00;96757.31;5035088;28;20442;-77
2021/12/27 07:44:42;;;;;;;3.57;2.10;;;2.70;99.90;;;3.45;100.00;96757.13;5034921;28;21252;-77
2021/12/27 07:47:12;;;;;;;3.80;1.80;;;2.70;99.90;;;3.44;100.00;96754.72;5045466;28;20835;-77
2021/12/27 07:49:42;;;;;;;2.50;1.90;;;2.70;99.90;;;3.43;100.00;96748.78;5040336;28;21050;-77
2021/12/27 07:52:13;;;;;;;2.40;2.00;;;2.70;99.90;;;3.43;100.00;96759.09;5044895;28;20457;-77
2021/12/27 07:54:44;;;;;;;3.17;2.13;;;2.60;99.90;;;3.46;100.00;96755.34;5033137;28;20818;-77
2021/12/27 07:57:13;;;;;;;1.80;1.50;;;2.70;99.90;;;3.45;100.00;96758.91;5042059;28;20886;-77
2021/12/27 07:59:47;;;;;;;5.83;2.17;;;2.70;99.90;;;3.45;100.00;96751.97;5046308;28;20882;-77
2021/12/27 08:02:17;;;;;;;2.03;1.80;;;2.70;99.90;;;3.45;100.00;96746.81;5032592;28;20543;-77
2021/12/27 08:04:49;;;;;;;6.80;2.10;;;2.70;99.90;;;3.45;100.00;96753.75;5041415;28;20951;-77
2021/12/27 08:07:18;;;;;;;2.17;1.93;;;2.60;99.90;;;3.46;100.00;96750.19;5044748;28;20458;-79
2021/12/27 08:09:50;;;;;;;4.67;2.60;;;2.70;99.90;;;3.46;100.00;96745.84;5041176;28;20494;-77
2021/12/27 08:12:20;;;;;;;4.33;2.77;;;2.70;99.90;;;3.48;100.00;96737.88;5041490;28;20470;-77
2021/12/27 08:14:51;;;;;;;10.50;2.90;;;2.80;99.90;;;3.49;100.00;96745.47;5046117;28;20466;-78
2021/12/27 08:17:20;;;;;;;3.30;2.33;;;2.70;99.90;;;3.44;100.00;96747.78;5039521;28;20462;-77
2021/12/27 08:19:50;;;;;;;4.40;2.83;;;2.60;99.90;;;3.39;100.00;96750.09;5041290;28;20842;-77
2021/12/27 08:22:29;;;;;;;4.10;2.40;;;2.50;99.90;;;3.41;100.00;96753.28;5039060;28;20465;-77
2021/12/27 08:25:00;;;;;;;2.60;1.97;;;2.60;99.90;;;3.41;100.00;96753.28;5047370;28;20454;-77
2021/12/27 08:27:30;;;;;;;2.00;1.80;;;2.60;99.90;;;3.44;100.00;96765.84;5034846;28;20455;-77
2021/12/27 08:30:04;;;;;;;3.57;2.10;;;2.60;99.90;;;3.45;100.00;96754.56;5040694;28;20515;-76
2021/12/27 08:32:37;;;;;;;2.70;2.17;;;2.60;99.90;;;3.48;100.00;96763.72;5035780;28;20477;-76
2021/12/27 08:35:08;;;;;;;3.00;2.40;;;2.70;99.90;;;3.49;100.00;96753.22;5040311;28;20835;-77
2021/12/27 08:37:39;;;;;;;3.60;2.33;;;2.70;99.90;;;3.54;100.00;96750.91;5046852;28;20542;-77
2021/12/27 08:40:13;;;;;;;1.63;1.53;;;2.80;99.90;;;3.55;100.00;96754.31;5035717;28;20541;-77
2021/12/27 08:42:43;;;;;;;5.07;1.80;;;2.80;99.90;;;3.55;100.00;96749.94;5031763;28;20446;-77
2021/12/27 08:45:14;;;;;;;1.70;1.60;;;2.80;99.90;;;3.55;100.00;96749.94;5041993;28;20457;-80
2021/12/27 08:47:43;;;;;;;3.90;2.57;;;2.90;99.90;;;3.59;100.00;96747.00;5040893;28;20448;-77
2021/12/27 08:50:13;;;;;;;6.70;3.40;;;2.90;99.90;;;3.62;100.00;96744.88;5041983;28;20489;-77
2021/12/27 08:52:43;;;;;;;6.97;3.10;;;2.90;99.90;;;3.64;100.00;96747.28;5047780;28;20504;-77
2021/12/27 08:55:14;;;;;;;4.80;3.70;;;2.90;99.90;;;3.65;100.00;96747.09;5047643;28;20490;-77
2021/12/27 08:57:44;;;;;;;3.43;2.70;;;3.00;99.90;;;3.68;100.00;96753.72;5045480;28;20445;-77
2021/12/27 09:00:16;;;;;;;3.60;2.37;;;3.00;99.90;;;3.68;100.00;96756.31;5040341;28;20459;-77
2021/12/27 09:02:46;;;;;;;3.00;2.67;;;3.00;99.90;;;3.69;100.00;96745.78;5030078;28;20535;-77
2021/12/27 09:05:16;;;;;;;2.97;2.40;;;3.00;99.90;;;3.71;100.00;96745.63;5034334;28;20470;-77
2021/12/27 09:07:45;;;;;;;2.40;2.20;;;3.00;99.90;;;3.70;100.00;96741.41;5040668;28;20571;-77
2021/12/27 09:10:17;;;;;;;2.80;2.00;;;3.00;99.90;;;3.72;100.00;96734.28;5042087;28;20528;-77
2021/12/27 09:12:47;;;;;;;2.10;1.80;;;3.00;99.90;;;3.74;100.00;96740.09;5041286;28;20455;-77
2021/12/27 09:15:17;;;;;;;3.77;2.23;;;3.10;99.90;;;3.71;100.00;96737.84;5040631;28;20466;-78
2021/12/27 09:17:47;;;;;;;1.70;1.60;;;3.20;99.90;;;3.71;100.00;96738.66;5040751;28;20940;-77
2021/12/27 09:20:18;;;;;;;8.00;4.80;;;3.10;99.90;;;3.74;100.00;96729.75;5033156;28;20492;-80
2021/12/27 09:22:48;;;;;;;5.60;2.10;;;3.10;99.90;;;3.76;100.00;96730.34;5036211;28;20463;-78
2021/12/27 09:25:20;;;;;;;2.37;1.60;;;3.10;99.90;;;3.79;100.00;96727.41;5044046;28;20930;-77
2021/12/27 09:27:50;;;;;;;2.10;1.90;;;3.20;99.90;;;3.78;100.00;96731.81;5047450;28;20470;-77
2021/12/27 09:30:20;;;;;;;1.80;1.40;;;3.20;99.90;;;3.80;100.00;96735.00;5044884;28;20528;-77
2021/12/27 09:32:50;;;;;;;2.23;1.67;;;3.10;99.90;;;3.83;100.00;96732.06;5033533;28;20705;-77
2021/12/27 09:35:21;;;;;;;2.53;1.80;;;3.10;99.90;;;3.83;100.00;96733.84;5044169;28;20461;-77
2021/12/27 09:37:51;;;;;;;1.60;1.30;;;3.10;99.90;;;3.82;100.00;96729.66;5029827;28;20475;-77
2021/12/27 09:40:21;;;;;;;2.07;1.60;;;3.10;99.90;;;3.85;100.00;96726.72;5037760;28;20532;-76
2021/12/27 09:42:52;;;;;;;1.73;1.63;;;3.10;99.90;;;3.85;100.00;96726.72;5040595;28;21074;-76
2021/12/27 09:45:24;;;;;;;2.77;2.07;;;3.20;99.90;;;3.87;100.00;96722.19;5044940;28;20880;-76
2021/12/27 09:47:53;;;;;;;1.53;1.43;;;3.20;99.90;;;3.87;100.00;96724.75;5037357;28;20563;-76
2021/12/27 09:50:28;;;;;;;2.53;1.73;;;3.30;99.90;;;3.88;100.00;96724.59;5038221;28;20845;-76
2021/12/27 09:52:58;;;;;;;1.97;1.67;;;3.30;99.90;;;3.84;100.00;96709.59;5035355;28;20533;-76
2021/12/27 09:55:28;;;;;;;2.43;1.50;;;3.20;99.90;;;3.89;100.00;96715.03;5042871;28;20813;-77
2021/12/27 09:57:59;;;;;;;1.50;1.40;;;3.20;99.90;;;3.91;100.00;96710.50;5045634;28;20856;-77
2021/12/27 10:00:34;;;;;;;16.33;1.80;;;3.20;99.90;;;3.92;100.00;96710.31;5030706;28;20558;-77
2021/12/27 10:03:04;;;;;;;1.53;1.43;;;3.30;99.90;;;3.94;100.00;96710.94;5033669;28;20473;-77
2021/12/27 10:05:33;;;;;;;1.67;1.57;;;3.40;99.90;;;3.96;100.00;96708.16;5027338;28;20454;-77
2021/12/27 10:08:04;;;;;;;1.80;1.70;;;3.40;99.90;;;3.99;100.00;96710.41;5033321;28;20448;-77
2021/12/27 10:10:36;;;;;;;1.60;1.50;;;3.40;99.90;;;3.99;100.00;96711.19;5032609;28;20994;-77
2021/12/27 10:13:09;;;;;;;2.00;1.80;;;3.40;99.90;;;4.02;100.00;96707.47;5029439;28;20522;-77
2021/12/27 10:15:42;;;;;;;1.83;1.73;;;3.40;99.90;;;3.99;100.00;96715.59;5036183;28;20507;-77
2021/12/27 10:18:14;;;;;;;3.20;1.90;;;3.40;99.90;;;4.01;100.00;96708.44;5035478;28;20522;-77
2021/12/27 10:20:47;;;;;;;4.17;2.17;;;3.40;99.90;;;4.03;100.00;96693.53;5033677;28;20483;-77
2021/12/27 10:23:18;;;;;;;3.30;1.90;;;3.40;99.90;;;4.01;100.00;96701.50;5029171;28;20456;-77
2021/12/27 10:25:52;;;;;;;1.83;1.60;;;3.30;99.90;;;4.01;100.00;96687.75;5038024;28;20542;-77
2021/12/27 10:28:27;;;;;;;2.33;1.90;;;3.30;99.90;;;4.04;100.00;96687.41;5036288;28;20512;-76
2021/12/27 10:31:04;;;;;;;2.17;1.97;;;3.40;99.90;;;4.08;100.00;96693.81;5039300;28;20495;-77
2021/12/27 10:33:34;;;;;;;3.60;1.90;;;3.40;99.90;;;4.09;100.00;96685.09;5033036;28;20961;-77
2021/12/27 10:36:04;;;;;;;6.50;2.63;;;3.50;99.90;;;4.10;100.00;96689.25;5040182;28;20513;-77
2021/12/27 10:38:37;;;;;;;4.03;2.90;;;3.40;99.90;;;4.10;100.00;96675.50;5036758;28;20507;-77
2021/12/27 10:41:12;;;;;;;8.10;4.30;;;3.40;99.90;;;4.10;100.00;96685.88;5040599;28;21324;-77